Alliance, Ohio
Current Conditions -  °F | °C
As of 3:51 PM on Sunday 21 Dec 2014 (Local Time) from KCAK Reporting Station
Haze Haze  
Wind Chill: 24°   Ceiling: 2000
Heat Index: 31°   Visibility: 6mi
Dew Point: 21°   Wind: 7mph
Humidity: 67%   Direction: 150°SSE
Pressure: 30.23"   Gusts: NA
Location:  40.92°N, 81.1°W
Report Text: KCAK 212051Z 15006KT 6SM HZ OVC020 M01/M06 A3023 RMK AO2 SLP251 T10061061 55009
Loading
Personal Weather Stations






























Interactive Weather Map New forecast layout! Learn more

10-Day Weather Forecast

Advertisements
Track Severe Weather on mobile